Time;durP1;ratioP1;P1;durP2;ratioP2;P2;SDS_P1;SDS_P2;PMS_P1;PMS_P2;Temp;Humidity;BMP_temperature;BMP_pressure;BME280_temperature;BME280_humidity;BME280_pressure;Samples;Min_cycle;Max_cycle;Signal;HPM_P1;HPM_P2
2024/02/16 00:00:03;;;;;;;;;;;;;;;;;;5029479;28;19936;-87
2024/02/16 00:02:29;;;;;;;;;;;;;;;;;;5024676;28;19919;-86
2024/02/16 00:04:55;;;;;;;;;;;;;;;;;;5024955;28;20016;-86
2024/02/16 00:07:21;;;;;;;;;;;;;;;;;;5027689;28;19963;-86
2024/02/16 00:09:47;;;;;;;;;;;;;;;;;;5017602;28;19917;-86
2024/02/16 00:12:14;;;;;;;;;;;;;;;;;;5026302;28;19921;-86
2024/02/16 00:14:40;;;;;;;;;;;;;;;;;;5038845;28;19924;-86
2024/02/16 00:17:07;;;;;;;;;;;;;;;;;;5029090;28;20328;-86
2024/02/16 00:19:32;;;;;;;;;;;;;;;;;;5028415;28;20011;-84
2024/02/16 00:21:59;;;;;;;;;;;;;;;;;;5027306;28;20056;-85
2024/02/16 00:24:25;;;;;;;;;;;;;;;;;;5021424;28;19917;-86
2024/02/16 00:26:51;;;;;;;;;;;;;;;;;;5033684;28;19971;-85
2024/02/16 00:29:17;;;;;;;;;;;;;;;;;;5032496;28;19913;-85
2024/02/16 00:31:43;;;;;;;;;;;;;;;;;;5032308;28;19924;-85
2024/02/16 00:34:09;;;;;;;;;;;;;;;;;;5032163;28;19981;-84
2024/02/16 00:36:34;;;;;;;;;;;;;;;;;;5029444;28;20380;-85
2024/02/16 00:39:00;;;;;;;;;;;;;;;;;;5031404;28;20303;-85
2024/02/16 00:41:26;;;;;;;;;;;;;;;;;;5032206;28;20000;-85
2024/02/16 00:43:52;;;;;;;;;;;;;;;;;;5031886;28;19917;-85
2024/02/16 00:46:18;;;;;;;;;;;;;;;;;;5029919;28;20000;-85
2024/02/16 00:48:44;;;;;;;;;;;;;;;;;;5032190;28;19916;-85
2024/02/16 00:51:09;;;;;;;;;;;;;;;;;;5030641;28;19957;-86
2024/02/16 00:53:35;;;;;;;;;;;;;;;;;;5030986;28;19925;-85
2024/02/16 00:56:02;;;;;;;;;;;;;;;;;;5029207;28;19920;-87
2024/02/16 00:58:28;;;;;;;;;;;;;;;;;;5028318;28;20368;-86
2024/02/16 01:00:54;;;;;;;;;;;;;;;;;;5024502;28;19971;-85
2024/02/16 01:03:22;;;;;;;;;;;;;;;;;;5028371;28;20299;-85
2024/02/16 01:05:48;;;;;;;;;;;;;;;;;;5030278;28;20312;-86
2024/02/16 01:08:14;;;;;;;;;;;;;;;;;;5028805;28;19967;-86
2024/02/16 01:10:40;;;;;;;;;;;;;;;;;;5030430;28;19982;-86
2024/02/16 01:13:05;;;;;;;;;;;;;;;;;;5032137;28;19921;-86
2024/02/16 01:15:31;;;;;;;;;;;;;;;;;;5031828;28;19924;-86
2024/02/16 01:18:00;;;;;;;;;;;;;;;;;;5032188;28;20052;-86
2024/02/16 01:20:25;;;;;;;;;;;;;;;;;;5029568;28;19983;-86
2024/02/16 01:22:52;;;;;;;;;;;;;;;;;;5032320;28;20368;-87
2024/02/16 01:25:18;;;;;;;;;;;;;;;;;;5031914;28;19924;-87
2024/02/16 01:27:44;;;;;;;;;;;;;;;;;;5030890;28;19917;-86
2024/02/16 01:30:09;;;;;;;;;;;;;;;;;;5025752;28;19925;-86
2024/02/16 01:32:35;;;;;;;;;;;;;;;;;;5027131;28;19932;-86
2024/02/16 01:35:01;;;;;;;;;;;;;;;;;;5029349;28;19920;-87
2024/02/16 01:37:27;;;;;;;;;;;;;;;;;;5026266;28;20043;-87
2024/02/16 01:39:53;;;;;;;;;;;;;;;;;;5029980;28;19921;-86
2024/02/16 01:42:19;;;;;;;;;;;;;;;;;;5030914;28;19923;-86
2024/02/16 01:44:45;;;;;;;;;;;;;;;;;;5026525;28;19917;-87
2024/02/16 01:47:11;;;;;;;;;;;;;;;;;;5028855;28;19975;-86
2024/02/16 01:49:37;;;;;;;;;;;;;;;;;;5028112;28;19928;-87
2024/02/16 01:52:03;;;;;;;;;;;;;;;;;;5028447;28;19921;-86
2024/02/16 01:54:29;;;;;;;;;;;;;;;;;;5030887;28;19913;-86
2024/02/16 01:56:55;;;;;;;;;;;;;;;;;;5029458;28;19921;-86
2024/02/16 01:59:21;;;;;;;;;;;;;;;;;;5030796;28;19931;-86
2024/02/16 02:01:47;;;;;;;;;;;;;;;;;;5031054;28;19925;-86
2024/02/16 02:04:13;;;;;;;;;;;;;;;;;;5031771;28;20458;-86
2024/02/16 02:06:39;;;;;;;;;;;;;;;;;;5030686;28;20330;-87
2024/02/16 02:09:05;;;;;;;;;;;;;;;;;;5029799;28;19913;-87
2024/02/16 02:11:31;;;;;;;;;;;;;;;;;;5029831;28;19917;-87
2024/02/16 02:13:57;;;;;;;;;;;;;;;;;;5031842;28;19913;-87
2024/02/16 02:16:23;;;;;;;;;;;;;;;;;;5029441;28;20004;-87
2024/02/16 02:18:49;;;;;;;;;;;;;;;;;;5028149;28;19975;-85
2024/02/16 02:21:14;;;;;;;;;;;;;;;;;;5021559;28;21538;-86
2024/02/16 02:23:40;;;;;;;;;;;;;;;;;;5023939;28;19913;-88
2024/02/16 02:26:07;;;;;;;;;;;;;;;;;;5027606;28;20383;-87
2024/02/16 02:28:34;;;;;;;;;;;;;;;;;;5028017;28;19913;-87
2024/02/16 02:31:00;;;;;;;;;;;;;;;;;;5027150;28;20399;-87
2024/02/16 02:33:25;;;;;;;;;;;;;;;;;;5027658;28;19917;-87
2024/02/16 02:35:51;;;;;;;;;;;;;;;;;;5028136;28;20059;-88
2024/02/16 02:38:17;;;;;;;;;;;;;;;;;;5028142;28;19924;-87
2024/02/16 02:40:43;;;;;;;;;;;;;;;;;;5030903;28;19971;-87
2024/02/16 02:43:09;;;;;;;;;;;;;;;;;;5026300;28;19979;-87
2024/02/16 02:45:35;;;;;;;;;;;;;;;;;;5028957;28;19928;-87
2024/02/16 02:48:01;;;;;;;;;;;;;;;;;;5027955;28;20284;-87
2024/02/16 02:50:27;;;;;;;;;;;;;;;;;;5026918;28;19917;-87
2024/02/16 02:52:52;;;;;;;;;;;;;;;;;;5027425;28;20443;-88
2024/02/16 02:55:19;;;;;;;;;;;;;;;;;;5033186;28;19975;-87
2024/02/16 02:57:44;;;;;;;;;;;;;;;;;;5022428;28;19924;-86
2024/02/16 03:00:10;;;;;;;;;;;;;;;;;;5027616;28;19925;-86
2024/02/16 03:02:37;;;;;;;;;;;;;;;;;;5023453;28;19917;-86
2024/02/16 03:05:03;;;;;;;;;;;;;;;;;;5027246;28;20439;-86
2024/02/16 03:07:28;;;;;;;;;;;;;;;;;;5029647;28;19960;-87
2024/02/16 03:09:54;;;;;;;;;;;;;;;;;;5030089;28;19921;-86
2024/02/16 03:12:20;;;;;;;;;;;;;;;;;;5026570;28;20391;-87
2024/02/16 03:14:46;;;;;;;;;;;;;;;;;;5023847;28;19944;-87
2024/02/16 03:17:12;;;;;;;;;;;;;;;;;;5023333;28;20012;-85
2024/02/16 03:19:38;;;;;;;;;;;;;;;;;;5025167;28;19921;-86
2024/02/16 03:22:04;;;;;;;;;;;;;;;;;;5026693;28;20376;-87
2024/02/16 03:24:29;;;;;;;;;;;;;;;;;;5019551;28;19948;-85
2024/02/16 03:26:55;;;;;;;;;;;;;;;;;;5024944;28;19917;-87
2024/02/16 03:29:21;;;;;;;;;;;;;;;;;;5022078;28;19917;-87
2024/02/16 03:31:47;;;;;;;;;;;;;;;;;;5023097;28;19925;-86
2024/02/16 03:34:13;;;;;;;;;;;;;;;;;;5020928;28;20374;-85
2024/02/16 03:36:39;;;;;;;;;;;;;;;;;;5022363;28;20722;-86
2024/02/16 03:39:06;;;;;;;;;;;;;;;;;;5030654;28;19924;-86
2024/02/16 03:41:32;;;;;;;;;;;;;;;;;;5030309;28;19913;-86
2024/02/16 03:43:58;;;;;;;;;;;;;;;;;;5027483;28;19921;-87
2024/02/16 03:46:24;;;;;;;;;;;;;;;;;;5021919;28;19913;-88
2024/02/16 03:48:50;;;;;;;;;;;;;;;;;;5023806;28;19925;-87
2024/02/16 03:51:16;;;;;;;;;;;;;;;;;;5019440;28;19932;-86
2024/02/16 03:53:41;;;;;;;;;;;;;;;;;;5028778;28;20372;-88
2024/02/16 03:56:07;;;;;;;;;;;;;;;;;;5019097;28;19953;-87
2024/02/16 03:58:33;;;;;;;;;;;;;;;;;;5025530;28;19968;-86
2024/02/16 04:00:59;;;;;;;;;;;;;;;;;;5021995;28;19968;-87
2024/02/16 04:03:25;;;;;;;;;;;;;;;;;;5027597;28;19924;-87
2024/02/16 04:05:52;;;;;;;;;;;;;;;;;;5023262;28;19917;-86
2024/02/16 04:08:18;;;;;;;;;;;;;;;;;;5019269;28;20283;-86
2024/02/16 04:10:44;;;;;;;;;;;;;;;;;;5020907;28;19916;-88
2024/02/16 04:13:10;;;;;;;;;;;;;;;;;;5031945;28;19920;-85
2024/02/16 04:15:36;;;;;;;;;;;;;;;;;;5035779;28;19921;-85
2024/02/16 04:18:02;;;;;;;;;;;;;;;;;;5018942;28;20371;-86
2024/02/16 04:20:28;;;;;;;;;;;;;;;;;;5023735;28;19913;-86
2024/02/16 04:22:54;;;;;;;;;;;;;;;;;;5026744;28;20382;-87
2024/02/16 04:25:19;;;;;;;;;;;;;;;;;;5028342;28;19909;-86
2024/02/16 04:27:45;;;;;;;;;;;;;;;;;;5025867;28;19927;-87
2024/02/16 04:30:11;;;;;;;;;;;;;;;;;;5028865;28;19917;-86
2024/02/16 04:32:37;;;;;;;;;;;;;;;;;;5025609;28;20342;-87
2024/02/16 04:35:04;;;;;;;;;;;;;;;;;;5020317;28;19920;-87
2024/02/16 04:37:29;;;;;;;;;;;;;;;;;;5028803;28;19917;-87
2024/02/16 04:39:55;;;;;;;;;;;;;;;;;;5027984;28;19963;-87
2024/02/16 04:42:22;;;;;;;;;;;;;;;;;;5027825;28;19936;-87
2024/02/16 04:44:48;;;;;;;;;;;;;;;;;;5027938;28;20011;-87
2024/02/16 04:47:14;;;;;;;;;;;;;;;;;;5028910;28;19913;-87
2024/02/16 04:49:40;;;;;;;;;;;;;;;;;;5018306;28;19913;-87
2024/02/16 04:52:08;;;;;;;;;;;;;;;;;;5029010;28;19925;-87
2024/02/16 04:54:34;;;;;;;;;;;;;;;;;;5028857;28;19914;-87
2024/02/16 04:57:00;;;;;;;;;;;;;;;;;;5029374;28;19966;-87
2024/02/16 04:59:27;;;;;;;;;;;;;;;;;;5028830;28;19921;-86
2024/02/16 05:01:53;;;;;;;;;;;;;;;;;;5028133;28;19921;-85
2024/02/16 05:04:19;;;;;;;;;;;;;;;;;;5027196;28;19995;-86
2024/02/16 05:06:48;;;;;;;;;;;;;;;;;;5030500;28;19913;-86
2024/02/16 05:09:17;;;;;;;;;;;;;;;;;;5033142;28;20356;-87
2024/02/16 05:11:42;;;;;;;;;;;;;;;;;;5025770;28;20010;-88
2024/02/16 05:14:08;;;;;;;;;;;;;;;;;;5033401;28;20375;-88
2024/02/16 05:16:34;;;;;;;;;;;;;;;;;;5032877;28;19924;-87
2024/02/16 05:19:00;;;;;;;;;;;;;;;;;;5028972;28;19968;-88
2024/02/16 05:21:26;;;;;;;;;;;;;;;;;;5028100;28;19963;-88
2024/02/16 05:23:52;;;;;;;;;;;;;;;;;;5030247;28;19917;-87
2024/02/16 05:26:18;;;;;;;;;;;;;;;;;;5032936;28;20020;-86
2024/02/16 05:28:44;;;;;;;;;;;;;;;;;;5031012;28;19917;-86
2024/02/16 05:31:10;;;;;;;;;;;;;;;;;;5027373;28;19924;-88
2024/02/16 05:33:36;;;;;;;;;;;;;;;;;;5029994;28;19956;-87
2024/02/16 05:36:03;;;;;;;;;;;;;;;;;;5031768;28;20451;-86
2024/02/16 05:38:35;;;;;;;;;;;;;;;;;;5030313;28;19921;-88
2024/02/16 05:41:00;;;;;;;;;;;;;;;;;;5032729;28;19913;-86
2024/02/16 05:43:26;;;;;;;;;;;;;;;;;;5025705;28;19924;-88
2024/02/16 05:45:52;;;;;;;;;;;;;;;;;;5032018;28;20303;-85
2024/02/16 05:50:50;;;;;;;;;;;;;;;;;;5028402;28;19926;-86
2024/02/16 05:53:16;;;;;;;;;;;;;;;;;;5016261;28;20434;-87
2024/02/16 05:55:44;;;;;;;;;;;;;;;;;;5015411;28;19917;-86
2024/02/16 05:58:10;;;;;;;;;;;;;;;;;;5022988;28;20372;-86
2024/02/16 06:00:38;;;;;;;;;;;;;;;;;;5025741;28;19913;-85
2024/02/16 06:03:04;;;;;;;;;;;;;;;;;;5024427;28;19913;-86
2024/02/16 06:05:30;;;;;;;;;;;;;;;;;;5030188;28;20016;-86
2024/02/16 06:07:57;;;;;;;;;;;;;;;;;;5021163;28;19972;-86
2024/02/16 06:10:22;;;;;;;;;;;;;;;;;;5022520;28;19953;-87
2024/02/16 06:12:48;;;;;;;;;;;;;;;;;;5030122;28;19971;-87
2024/02/16 06:15:14;;;;;;;;;;;;;;;;;;5030857;28;19932;-85
2024/02/16 06:17:40;;;;;;;;;;;;;;;;;;5026051;28;19920;-86
2024/02/16 06:20:09;;;;;;;;;;;;;;;;;;5024324;28;20000;-86
2024/02/16 06:22:35;;;;;;;;;;;;;;;;;;5017808;28;20276;-86
2024/02/16 06:25:01;;;;;;;;;;;;;;;;;;5015183;28;19914;-86
2024/02/16 06:27:26;;;;;;;;;;;;;;;;;;5017892;28;20005;-86
2024/02/16 06:29:52;;;;;;;;;;;;;;;;;;5024928;28;19960;-87
2024/02/16 06:32:18;;;;;;;;;;;;;;;;;;5023026;28;20008;-86
2024/02/16 06:34:45;;;;;;;;;;;;;;;;;;5032285;28;19919;-88
2024/02/16 06:37:11;;;;;;;;;;;;;;;;;;5015217;28;19924;-88
2024/02/16 06:39:37;;;;;;;;;;;;;;;;;;5006777;28;19913;-85
2024/02/16 06:42:03;;;;;;;;;;;;;;;;;;5007669;28;19995;-86
2024/02/16 06:44:28;;;;;;;;;;;;;;;;;;5012123;28;19917;-86
2024/02/16 06:46:54;;;;;;;;;;;;;;;;;;5007912;28;20004;-87
2024/02/16 06:49:20;;;;;;;;;;;;;;;;;;5009628;28;20305;-87
2024/02/16 06:51:46;;;;;;;;;;;;;;;;;;5008644;28;19965;-87
2024/02/16 06:54:12;;;;;;;;;;;;;;;;;;4999199;28;19921;-87
2024/02/16 06:56:38;;;;;;;;;;;;;;;;;;5006430;28;19968;-89
2024/02/16 06:59:04;;;;;;;;;;;;;;;;;;5013599;28;19920;-84
2024/02/16 07:01:29;;;;;;;;;;;;;;;;;;5009371;28;19914;-89
2024/02/16 07:03:55;;;;;;;;;;;;;;;;;;5005111;28;20418;-87
2024/02/16 07:06:21;;;;;;;;;;;;;;;;;;4997159;28;19918;-83
2024/02/16 07:08:47;;;;;;;;;;;;;;;;;;4999276;28;19926;-84
2024/02/16 07:11:13;;;;;;;;;;;;;;;;;;5026211;28;19949;-83
2024/02/16 07:13:39;;;;;;;;;;;;;;;;;;5016049;28;19914;-90
2024/02/16 07:16:06;;;;;;;;;;;;;;;;;;4999836;28;19918;-84
2024/02/16 07:18:32;;;;;;;;;;;;;;;;;;4998669;28;20303;-84
2024/02/16 07:20:58;;;;;;;;;;;;;;;;;;5007962;28;20016;-86
2024/02/16 07:23:24;;;;;;;;;;;;;;;;;;5001661;28;19913;-86
2024/02/16 07:25:50;;;;;;;;;;;;;;;;;;5006227;28;20028;-87
2024/02/16 07:28:16;;;;;;;;;;;;;;;;;;5010488;28;19910;-86
2024/02/16 07:30:42;;;;;;;;;;;;;;;;;;4998851;28;19928;-88
2024/02/16 07:33:08;;;;;;;;;;;;;;;;;;5005590;28;19913;-86
2024/02/16 07:35:35;;;;;;;;;;;;;;;;;;5014248;28;19921;-87
2024/02/16 07:38:01;;;;;;;;;;;;;;;;;;5003618;28;19913;-86
2024/02/16 07:40:27;;;;;;;;;;;;;;;;;;5011932;28;19968;-88
2024/02/16 07:42:53;;;;;;;;;;;;;;;;;;5008795;28;19922;-84
2024/02/16 07:45:19;;;;;;;;;;;;;;;;;;5012015;28;19968;-84
2024/02/16 07:47:45;;;;;;;;;;;;;;;;;;5005306;28;19983;-82
2024/02/16 07:50:11;;;;;;;;;;;;;;;;;;5003356;28;19926;-83
2024/02/16 07:52:37;;;;;;;;;;;;;;;;;;5001822;28;19929;-86
2024/02/16 07:55:03;;;;;;;;;;;;;;;;;;4998048;28;19971;-84
2024/02/16 07:57:30;;;;;;;;;;;;;;;;;;4999640;28;20056;-84
2024/02/16 07:59:56;;;;;;;;;;;;;;;;;;4996506;28;20449;-84
2024/02/16 08:02:22;;;;;;;;;;;;;;;;;;4999015;28;20009;-85
2024/02/16 08:04:48;;;;;;;;;;;;;;;;;;4997873;28;20398;-84
2024/02/16 08:07:13;;;;;;;;;;;;;;;;;;5000293;28;19921;-84
2024/02/16 08:09:40;;;;;;;;;;;;;;;;;;5005877;28;19917;-84
2024/02/16 08:12:06;;;;;;;;;;;;;;;;;;5004331;28;19917;-84
2024/02/16 08:14:32;;;;;;;;;;;;;;;;;;5009667;28;19924;-84
2024/02/16 08:16:58;;;;;;;;;;;;;;;;;;5000411;28;19913;-84
2024/02/16 08:19:24;;;;;;;;;;;;;;;;;;5006419;28;20327;-85
2024/02/16 08:21:51;;;;;;;;;;;;;;;;;;5008466;28;19946;-84
2024/02/16 08:24:16;;;;;;;;;;;;;;;;;;5009292;28;20368;-85
2024/02/16 08:26:42;;;;;;;;;;;;;;;;;;5009092;28;20342;-84
2024/02/16 08:29:09;;;;;;;;;;;;;;;;;;5021623;28;20148;-83
2024/02/16 08:31:35;;;;;;;;;;;;;;;;;;5008383;28;20013;-84
2024/02/16 08:34:01;;;;;;;;;;;;;;;;;;5008319;28;20416;-85
2024/02/16 08:36:30;;;;;;;;;;;;;;;;;;5008939;28;20483;-84
2024/02/16 08:38:56;;;;;;;;;;;;;;;;;;5007094;28;19913;-84
2024/02/16 08:41:22;;;;;;;;;;;;;;;;;;5020521;28;19987;-84
2024/02/16 08:43:47;;;;;;;;;;;;;;;;;;5011853;28;19944;-85
2024/02/16 08:46:13;;;;;;;;;;;;;;;;;;5012473;28;19910;-84
2024/02/16 08:48:39;;;;;;;;;;;;;;;;;;5011823;28;20379;-84
2024/02/16 08:51:06;;;;;;;;;;;;;;;;;;5013767;28;20304;-84
2024/02/16 08:53:32;;;;;;;;;;;;;;;;;;5011846;28;20003;-83
2024/02/16 08:55:57;;;;;;;;;;;;;;;;;;5011871;28;20424;-84
2024/02/16 08:58:23;;;;;;;;;;;;;;;;;;5011596;28;19956;-84
2024/02/16 09:00:49;;;;;;;;;;;;;;;;;;5012145;28;20001;-84
2024/02/16 09:03:16;;;;;;;;;;;;;;;;;;5011811;28;20318;-84
2024/02/16 09:05:43;;;;;;;;;;;;;;;;;;5018061;28;19962;-84
2024/02/16 09:08:09;;;;;;;;;;;;;;;;;;5016647;28;19913;-84
2024/02/16 09:10:35;;;;;;;;;;;;;;;;;;5011639;28;19917;-85
2024/02/16 09:13:01;;;;;;;;;;;;;;;;;;5012199;28;19917;-84
2024/02/16 09:15:26;;;;;;;;;;;;;;;;;;5011176;28;19913;-84
2024/02/16 09:17:53;;;;;;;;;;;;;;;;;;5011344;28;19956;-84
2024/02/16 09:20:22;;;;;;;;;;;;;;;;;;5012825;28;20008;-84
2024/02/16 09:22:47;;;;;;;;;;;;;;;;;;5010661;28;20153;-84
2024/02/16 09:25:14;;;;;;;;;;;;;;;;;;5011597;28;19909;-84
2024/02/16 09:27:40;;;;;;;;;;;;;;;;;;5011311;28;19920;-84
2024/02/16 09:30:06;;;;;;;;;;;;;;;;;;5011367;28;19909;-84
2024/02/16 09:32:32;;;;;;;;;;;;;;;;;;5014559;28;19921;-84
2024/02/16 09:34:58;;;;;;;;;;;;;;;;;;5022005;28;19996;-84
2024/02/16 09:37:24;;;;;;;;;;;;;;;;;;5016963;28;20020;-84
2024/02/16 09:39:50;;;;;;;;;;;;;;;;;;5021563;28;19963;-84
2024/02/16 09:42:16;;;;;;;;;;;;;;;;;;5010930;28;19953;-84
2024/02/16 09:44:42;;;;;;;;;;;;;;;;;;5011369;28;19921;-84
2024/02/16 09:47:10;;;;;;;;;;;;;;;;;;5010922;28;19914;-84
2024/02/16 09:49:36;;;;;;;;;;;;;;;;;;5018204;28;19929;-85
2024/02/16 09:52:02;;;;;;;;;;;;;;;;;;5020362;28;19921;-84
2024/02/16 09:54:28;;;;;;;;;;;;;;;;;;5016089;28;19913;-84
2024/02/16 09:56:53;;;;;;;;;;;;;;;;;;5020807;28;20051;-84
2024/02/16 09:59:19;;;;;;;;;;;;;;;;;;5010719;28;19910;-85
2024/02/16 10:01:45;;;;;;;;;;;;;;;;;;5010617;28;19910;-84
2024/02/16 10:04:11;;;;;;;;;;;;;;;;;;5010832;28;19913;-84
2024/02/16 10:06:37;;;;;;;;;;;;;;;;;;5015709;28;19933;-85
2024/02/16 10:09:06;;;;;;;;;;;;;;;;;;5018596;28;19988;-84
2024/02/16 10:11:32;;;;;;;;;;;;;;;;;;5010868;28;19918;-84
2024/02/16 10:13:58;;;;;;;;;;;;;;;;;;5011239;28;19983;-84
2024/02/16 10:16:24;;;;;;;;;;;;;;;;;;5011679;28;19913;-85
2024/02/16 10:18:49;;;;;;;;;;;;;;;;;;5011256;28;20365;-85
2024/02/16 10:21:15;;;;;;;;;;;;;;;;;;5015059;28;19914;-84
2024/02/16 10:23:41;;;;;;;;;;;;;;;;;;5011033;28;19925;-85
2024/02/16 10:26:07;;;;;;;;;;;;;;;;;;5010661;28;20016;-85
2024/02/16 10:28:33;;;;;;;;;;;;;;;;;;5018980;28;19932;-84
2024/02/16 10:31:02;;;;;;;;;;;;;;;;;;5014042;28;19918;-85
2024/02/16 10:33:28;;;;;;;;;;;;;;;;;;5010098;28;19920;-84
2024/02/16 10:35:55;;;;;;;;;;;;;;;;;;5010044;28;19913;-85
2024/02/16 10:38:22;;;;;;;;;;;;;;;;;;5011005;28;19924;-84
2024/02/16 10:40:48;;;;;;;;;;;;;;;;;;5009292;28;19920;-85
2024/02/16 10:43:14;;;;;;;;;;;;;;;;;;5009848;28;19909;-85
2024/02/16 10:45:40;;;;;;;;;;;;;;;;;;5009639;28;19910;-83
2024/02/16 10:48:06;;;;;;;;;;;;;;;;;;5018490;28;19917;-85
2024/02/16 10:50:33;;;;;;;;;;;;;;;;;;5011798;28;20229;-84
2024/02/16 10:52:59;;;;;;;;;;;;;;;;;;5009564;28;19917;-85
2024/02/16 10:55:25;;;;;;;;;;;;;;;;;;5014419;28;20575;-85
2024/02/16 10:57:52;;;;;;;;;;;;;;;;;;5008723;28;19916;-83
2024/02/16 11:00:19;;;;;;;;;;;;;;;;;;5009338;28;20291;-84
2024/02/16 11:02:44;;;;;;;;;;;;;;;;;;5009685;28;19909;-82
2024/02/16 11:05:11;;;;;;;;;;;;;;;;;;5009755;28;19917;-84
2024/02/16 11:07:37;;;;;;;;;;;;;;;;;;5011081;28;20279;-85
2024/02/16 11:10:03;;;;;;;;;;;;;;;;;;5009258;28;19913;-84
2024/02/16 11:12:30;;;;;;;;;;;;;;;;;;5008572;28;20016;-84
2024/02/16 11:14:56;;;;;;;;;;;;;;;;;;5008984;28;20004;-85
2024/02/16 11:17:22;;;;;;;;;;;;;;;;;;5011635;28;19917;-84
2024/02/16 11:19:48;;;;;;;;;;;;;;;;;;5008378;28;19979;-84
2024/02/16 11:22:14;;;;;;;;;;;;;;;;;;5009761;28;19940;-85
2024/02/16 11:24:40;;;;;;;;;;;;;;;;;;5009894;28;19952;-85
2024/02/16 11:27:05;;;;;;;;;;;;;;;;;;5015832;28;19917;-84
2024/02/16 11:29:32;;;;;;;;;;;;;;;;;;5011676;28;19913;-82
2024/02/16 11:31:57;;;;;;;;;;;;;;;;;;5010763;28;20304;-82
2024/02/16 11:34:25;;;;;;;;;;;;;;;;;;5010400;28;22372;-84
2024/02/16 11:36:51;;;;;;;;;;;;;;;;;;5009864;28;20360;-85
2024/02/16 11:39:17;;;;;;;;;;;;;;;;;;5009043;28;20017;-85
2024/02/16 11:41:43;;;;;;;;;;;;;;;;;;5008659;28;20364;-83
2024/02/16 11:44:09;;;;;;;;;;;;;;;;;;5020381;28;20290;-84
2024/02/16 11:46:35;;;;;;;;;;;;;;;;;;5008914;28;19909;-83
2024/02/16 11:49:01;;;;;;;;;;;;;;;;;;5008331;28;19941;-84
2024/02/16 11:51:27;;;;;;;;;;;;;;;;;;5015240;28;20354;-83
2024/02/16 11:53:53;;;;;;;;;;;;;;;;;;5010756;28;20004;-84
2024/02/16 11:56:18;;;;;;;;;;;;;;;;;;5008621;28;19936;-83
2024/02/16 11:58:44;;;;;;;;;;;;;;;;;;5015726;28;19914;-84
2024/02/16 12:01:10;;;;;;;;;;;;;;;;;;5008068;28;19920;-84
2024/02/16 12:03:36;;;;;;;;;;;;;;;;;;5008601;28;19909;-84
2024/02/16 12:06:02;;;;;;;;;;;;;;;;;;5010162;28;19922;-83
2024/02/16 12:08:28;;;;;;;;;;;;;;;;;;5019230;28;19960;-83
2024/02/16 12:10:53;;;;;;;;;;;;;;;;;;5008178;28;20292;-83
2024/02/16 12:13:19;;;;;;;;;;;;;;;;;;5008282;28;19914;-83
2024/02/16 12:15:45;;;;;;;;;;;;;;;;;;5009540;28;19975;-83
2024/02/16 12:18:11;;;;;;;;;;;;;;;;;;5011948;28;19914;-84
2024/02/16 12:20:37;;;;;;;;;;;;;;;;;;5012784;28;20408;-83
2024/02/16 12:23:03;;;;;;;;;;;;;;;;;;5022909;28;19925;-84
2024/02/16 12:25:29;;;;;;;;;;;;;;;;;;5011885;28;19909;-83
2024/02/16 12:27:55;;;;;;;;;;;;;;;;;;5017080;28;20323;-83
2024/02/16 12:30:21;;;;;;;;;;;;;;;;;;5012289;28;19913;-83
2024/02/16 12:32:47;;;;;;;;;;;;;;;;;;5011670;28;19993;-82
2024/02/16 12:35:12;;;;;;;;;;;;;;;;;;5012005;28;19909;-83
2024/02/16 12:37:38;;;;;;;;;;;;;;;;;;5012519;28;19917;-83
2024/02/16 12:40:06;;;;;;;;;;;;;;;;;;5012435;28;19914;-83
2024/02/16 12:42:32;;;;;;;;;;;;;;;;;;5011720;28;19960;-82
2024/02/16 12:44:57;;;;;;;;;;;;;;;;;;5012064;28;19913;-85
2024/02/16 12:47:23;;;;;;;;;;;;;;;;;;5019110;28;19940;-83
2024/02/16 12:49:49;;;;;;;;;;;;;;;;;;5011227;28;19971;-82
2024/02/16 12:52:15;;;;;;;;;;;;;;;;;;5014700;28;19921;-83
2024/02/16 12:54:41;;;;;;;;;;;;;;;;;;5012431;28;19920;-83
2024/02/16 12:57:07;;;;;;;;;;;;;;;;;;5015906;28;19917;-83
2024/02/16 12:59:32;;;;;;;;;;;;;;;;;;5020607;28;20006;-83
2024/02/16 13:02:00;;;;;;;;;;;;;;;;;;5011578;28;19921;-82
2024/02/16 13:04:26;;;;;;;;;;;;;;;;;;5024963;28;19913;-81
2024/02/16 13:06:52;;;;;;;;;;;;;;;;;;5015765;28;20339;-83
2024/02/16 13:09:18;;;;;;;;;;;;;;;;;;5011887;28;19955;-83
2024/02/16 13:11:44;;;;;;;;;;;;;;;;;;5012067;28;19948;-83
2024/02/16 13:14:10;;;;;;;;;;;;;;;;;;5011587;28;19921;-83
2024/02/16 13:16:36;;;;;;;;;;;;;;;;;;5019604;28;19921;-83
2024/02/16 13:19:03;;;;;;;;;;;;;;;;;;5011282;28;20201;-83
2024/02/16 13:21:28;;;;;;;;;;;;;;;;;;5012881;28;19909;-82
2024/02/16 13:23:54;;;;;;;;;;;;;;;;;;5019521;28;20265;-83
2024/02/16 13:26:20;;;;;;;;;;;;;;;;;;5011476;28;19972;-83
2024/02/16 13:28:46;;;;;;;;;;;;;;;;;;5013576;28;19920;-83
2024/02/16 13:31:12;;;;;;;;;;;;;;;;;;5024407;28;19920;-82
2024/02/16 13:33:38;;;;;;;;;;;;;;;;;;5010888;28;19910;-83
2024/02/16 13:36:05;;;;;;;;;;;;;;;;;;5010869;28;20644;-84
2024/02/16 13:38:30;;;;;;;;;;;;;;;;;;5022750;28;19975;-83
2024/02/16 13:40:56;;;;;;;;;;;;;;;;;;5012503;28;19917;-84
2024/02/16 13:43:22;;;;;;;;;;;;;;;;;;5011065;28;19916;-84
2024/02/16 13:45:48;;;;;;;;;;;;;;;;;;5010548;28;19964;-84
2024/02/16 13:48:14;;;;;;;;;;;;;;;;;;5010374;28;19909;-83
2024/02/16 13:50:40;;;;;;;;;;;;;;;;;;5010577;28;19925;-83
2024/02/16 13:53:06;;;;;;;;;;;;;;;;;;5021620;28;19924;-83
2024/02/16 13:55:32;;;;;;;;;;;;;;;;;;5012334;28;20020;-83
2024/02/16 13:57:58;;;;;;;;;;;;;;;;;;5010880;28;19937;-83
2024/02/16 14:00:24;;;;;;;;;;;;;;;;;;5009331;28;19952;-83
2024/02/16 14:02:50;;;;;;;;;;;;;;;;;;5010589;28;19920;-83
2024/02/16 14:05:16;;;;;;;;;;;;;;;;;;5011032;28;19910;-83
2024/02/16 14:07:42;;;;;;;;;;;;;;;;;;5015954;28;19917;-83
2024/02/16 14:10:08;;;;;;;;;;;;;;;;;;5011175;28;20586;-83
2024/02/16 14:12:33;;;;;;;;;;;;;;;;;;5010144;28;20580;-84
2024/02/16 14:14:59;;;;;;;;;;;;;;;;;;5009817;28;19940;-84
2024/02/16 14:17:25;;;;;;;;;;;;;;;;;;5010313;28;19910;-84
2024/02/16 14:19:51;;;;;;;;;;;;;;;;;;5012215;28;20372;-83
2024/02/16 14:22:17;;;;;;;;;;;;;;;;;;5010404;28;20308;-84
2024/02/16 14:24:43;;;;;;;;;;;;;;;;;;5012014;28;19936;-83
2024/02/16 14:27:08;;;;;;;;;;;;;;;;;;5009303;28;19920;-83
2024/02/16 14:29:34;;;;;;;;;;;;;;;;;;5013507;28;19918;-83
2024/02/16 14:32:00;;;;;;;;;;;;;;;;;;4995540;28;19982;-83
2024/02/16 14:34:27;;;;;;;;;;;;;;;;;;5000983;28;19923;-85
2024/02/16 14:36:53;;;;;;;;;;;;;;;;;;5008245;28;19914;-83
2024/02/16 14:39:19;;;;;;;;;;;;;;;;;;5019367;28;19920;-83
2024/02/16 14:41:44;;;;;;;;;;;;;;;;;;5010385;28;19910;-83
2024/02/16 14:44:10;;;;;;;;;;;;;;;;;;5010316;28;19913;-83
2024/02/16 14:46:36;;;;;;;;;;;;;;;;;;5006088;28;20273;-83
2024/02/16 14:49:02;;;;;;;;;;;;;;;;;;5001502;28;19929;-84
2024/02/16 14:51:28;;;;;;;;;;;;;;;;;;4999195;28;19929;-83
2024/02/16 14:53:54;;;;;;;;;;;;;;;;;;5007032;28;19974;-83
2024/02/16 14:56:21;;;;;;;;;;;;;;;;;;5009394;28;19918;-88
2024/02/16 14:58:48;;;;;;;;;;;;;;;;;;5002266;28;19970;-83
2024/02/16 15:01:13;;;;;;;;;;;;;;;;;;4997603;28;19914;-84
2024/02/16 15:03:39;;;;;;;;;;;;;;;;;;5006096;28;19914;-84
2024/02/16 15:06:05;;;;;;;;;;;;;;;;;;5000971;28;19948;-84
2024/02/16 15:08:31;;;;;;;;;;;;;;;;;;4999532;28;19921;-86
2024/02/16 15:10:57;;;;;;;;;;;;;;;;;;4998759;28;20008;-82
2024/02/16 15:13:24;;;;;;;;;;;;;;;;;;4999946;28;19918;-83
2024/02/16 15:15:50;;;;;;;;;;;;;;;;;;4998282;28;20317;-84
2024/02/16 15:18:16;;;;;;;;;;;;;;;;;;4998528;28;19968;-83
2024/02/16 15:20:42;;;;;;;;;;;;;;;;;;4997570;28;19922;-83
2024/02/16 15:23:07;;;;;;;;;;;;;;;;;;4992542;28;20507;-82
2024/02/16 15:25:33;;;;;;;;;;;;;;;;;;5000704;28;20647;-82
2024/02/16 15:27:59;;;;;;;;;;;;;;;;;;4998460;28;19937;-85
2024/02/16 15:30:25;;;;;;;;;;;;;;;;;;4998946;28;19941;-82
2024/02/16 15:32:51;;;;;;;;;;;;;;;;;;4998613;28;19960;-81
2024/02/16 15:35:17;;;;;;;;;;;;;;;;;;4999024;28;19928;-82
2024/02/16 15:37:44;;;;;;;;;;;;;;;;;;4998896;28;19914;-82
2024/02/16 15:40:10;;;;;;;;;;;;;;;;;;5000299;28;19917;-82
2024/02/16 15:42:36;;;;;;;;;;;;;;;;;;4999905;28;19948;-81
2024/02/16 15:45:03;;;;;;;;;;;;;;;;;;4999398;28;19921;-84
2024/02/16 15:47:30;;;;;;;;;;;;;;;;;;4999421;28;19985;-82
2024/02/16 15:49:55;;;;;;;;;;;;;;;;;;4996352;28;19926;-83
2024/02/16 15:52:21;;;;;;;;;;;;;;;;;;4999606;28;20332;-82
2024/02/16 15:54:50;;;;;;;;;;;;;;;;;;4997832;28;19937;-83
2024/02/16 15:57:18;;;;;;;;;;;;;;;;;;5000053;28;20277;-82
2024/02/16 15:59:44;;;;;;;;;;;;;;;;;;4998528;28;19925;-83
2024/02/16 16:02:10;;;;;;;;;;;;;;;;;;4998620;28;19922;-83
2024/02/16 16:04:35;;;;;;;;;;;;;;;;;;5000390;28;19920;-82
2024/02/16 16:07:01;;;;;;;;;;;;;;;;;;4997949;28;19925;-82
2024/02/16 16:09:27;;;;;;;;;;;;;;;;;;4995901;28;19914;-82
2024/02/16 16:11:53;;;;;;;;;;;;;;;;;;5004227;28;19957;-83
2024/02/16 16:14:19;;;;;;;;;;;;;;;;;;5005690;28;19922;-86
2024/02/16 16:16:45;;;;;;;;;;;;;;;;;;5008178;28;20408;-82
2024/02/16 16:19:11;;;;;;;;;;;;;;;;;;5002509;28;19921;-85
2024/02/16 16:21:37;;;;;;;;;;;;;;;;;;5020187;28;19928;-85
2024/02/16 16:24:05;;;;;;;;;;;;;;;;;;5002489;28;19913;-82
2024/02/16 16:26:31;;;;;;;;;;;;;;;;;;5007959;28;19913;-84
2024/02/16 16:28:57;;;;;;;;;;;;;;;;;;5003075;28;19921;-86
2024/02/16 16:31:23;;;;;;;;;;;;;;;;;;5005771;28;19925;-85
2024/02/16 16:33:49;;;;;;;;;;;;;;;;;;5004860;28;19976;-84
2024/02/16 16:36:15;;;;;;;;;;;;;;;;;;4996140;28;19918;-85
2024/02/16 16:38:41;;;;;;;;;;;;;;;;;;4999099;28;20055;-85